Terminal Aerodrome Forecast
Issued by NWS St Louis, MO

Home | Current Version | Previous Version | Text Only | Print | Product List | Glossary On
Versions: 1 2 3 4 5 6 7 8 9 10 11 12 13 14 15 16
000
FTUS43 KLSX 282336
TAFCOU
TAF
KCOU 282336Z 2900/2924 19007KT P6SM SKC
     FM291200 32008KT P6SM BKN100
     FM291800 36008KT P6SM BKN040=

USA.gov is the U.S. government's official web portal to all federal, state and local government web resources and services.